sensor_id;sensor_type;location;lat;lon;timestamp;P1;durP1;ratioP1;P2;durP2;ratioP2
5167;SDS011;2603;48.918;8.980;2022-07-19T00:00:25;6.00;;;1.87;;
5167;SDS011;2603;48.918;8.980;2022-07-19T00:02:52;4.67;;;2.10;;
5167;SDS011;2603;48.918;8.980;2022-07-19T00:05:19;3.50;;;1.60;;
5167;SDS011;2603;48.918;8.980;2022-07-19T00:07:47;7.30;;;2.10;;
5167;SDS011;2603;48.918;8.980;2022-07-19T00:10:14;5.93;;;1.97;;
5167;SDS011;2603;48.918;8.980;2022-07-19T00:12:43;11.50;;;2.03;;
5167;SDS011;2603;48.918;8.980;2022-07-19T00:15:11;12.20;;;2.20;;
5167;SDS011;2603;48.918;8.980;2022-07-19T00:17:40;5.37;;;1.93;;
5167;SDS011;2603;48.918;8.980;2022-07-19T00:20:08;4.70;;;2.20;;
5167;SDS011;2603;48.918;8.980;2022-07-19T00:22:35;12.10;;;2.07;;
5167;SDS011;2603;48.918;8.980;2022-07-19T00:25:04;6.73;;;1.83;;
5167;SDS011;2603;48.918;8.980;2022-07-19T00:27:31;9.60;;;1.70;;
5167;SDS011;2603;48.918;8.980;2022-07-19T00:29:58;4.23;;;1.73;;
5167;SDS011;2603;48.918;8.980;2022-07-19T00:32:25;4.00;;;1.40;;
5167;SDS011;2603;48.918;8.980;2022-07-19T00:34:51;5.63;;;1.70;;
5167;SDS011;2603;48.918;8.980;2022-07-19T00:37:18;3.23;;;1.43;;
5167;SDS011;2603;48.918;8.980;2022-07-19T00:39:44;6.43;;;2.47;;
5167;SDS011;2603;48.918;8.980;2022-07-19T00:42:12;5.67;;;2.07;;
5167;SDS011;2603;48.918;8.980;2022-07-19T00:44:40;7.87;;;3.23;;
5167;SDS011;2603;48.918;8.980;2022-07-19T00:47:06;1.80;;;1.33;;
5167;SDS011;2603;48.918;8.980;2022-07-19T00:49:33;5.83;;;1.50;;
5167;SDS011;2603;48.918;8.980;2022-07-19T00:52:00;3.97;;;1.20;;
5167;SDS011;2603;48.918;8.980;2022-07-19T00:54:28;9.20;;;1.73;;
5167;SDS011;2603;48.918;8.980;2022-07-19T00:56:55;1.93;;;1.10;;
5167;SDS011;2603;48.918;8.980;2022-07-19T00:59:24;6.07;;;2.23;;
5167;SDS011;2603;48.918;8.980;2022-07-19T01:01:52;3.60;;;1.80;;
5167;SDS011;2603;48.918;8.980;2022-07-19T01:04:19;3.37;;;1.83;;
5167;SDS011;2603;48.918;8.980;2022-07-19T01:06:46;7.90;;;2.10;;
5167;SDS011;2603;48.918;8.980;2022-07-19T01:09:13;2.33;;;1.77;;
5167;SDS011;2603;48.918;8.980;2022-07-19T01:11:39;2.60;;;1.50;;
5167;SDS011;2603;48.918;8.980;2022-07-19T01:14:06;5.73;;;2.17;;
5167;SDS011;2603;48.918;8.980;2022-07-19T01:16:34;9.53;;;1.63;;
5167;SDS011;2603;48.918;8.980;2022-07-19T01:19:01;10.00;;;1.97;;
5167;SDS011;2603;48.918;8.980;2022-07-19T01:21:28;8.77;;;2.60;;
5167;SDS011;2603;48.918;8.980;2022-07-19T01:23:56;3.97;;;1.40;;
5167;SDS011;2603;48.918;8.980;2022-07-19T01:26:22;8.03;;;1.77;;
5167;SDS011;2603;48.918;8.980;2022-07-19T01:28:49;4.40;;;1.80;;
5167;SDS011;2603;48.918;8.980;2022-07-19T01:31:16;3.17;;;1.73;;
5167;SDS011;2603;48.918;8.980;2022-07-19T01:33:43;4.87;;;1.77;;
5167;SDS011;2603;48.918;8.980;2022-07-19T01:36:11;2.93;;;1.80;;
5167;SDS011;2603;48.918;8.980;2022-07-19T01:38:39;5.50;;;1.73;;
5167;SDS011;2603;48.918;8.980;2022-07-19T01:41:06;4.83;;;1.70;;
5167;SDS011;2603;48.918;8.980;2022-07-19T01:43:33;6.87;;;1.70;;
5167;SDS011;2603;48.918;8.980;2022-07-19T01:46:00;6.90;;;2.13;;
5167;SDS011;2603;48.918;8.980;2022-07-19T01:48:26;4.77;;;2.50;;
5167;SDS011;2603;48.918;8.980;2022-07-19T01:50:53;3.47;;;1.60;;
5167;SDS011;2603;48.918;8.980;2022-07-19T01:53:20;4.83;;;2.07;;
5167;SDS011;2603;48.918;8.980;2022-07-19T01:55:48;8.93;;;2.13;;
5167;SDS011;2603;48.918;8.980;2022-07-19T01:58:14;5.77;;;2.03;;
5167;SDS011;2603;48.918;8.980;2022-07-19T02:00:41;2.43;;;1.60;;
5167;SDS011;2603;48.918;8.980;2022-07-19T02:03:07;4.13;;;1.80;;
5167;SDS011;2603;48.918;8.980;2022-07-19T02:05:34;5.23;;;2.80;;
5167;SDS011;2603;48.918;8.980;2022-07-19T02:08:01;5.60;;;2.73;;
5167;SDS011;2603;48.918;8.980;2022-07-19T02:10:27;11.67;;;2.60;;
5167;SDS011;2603;48.918;8.980;2022-07-19T02:12:56;4.30;;;1.87;;
5167;SDS011;2603;48.918;8.980;2022-07-19T02:15:22;4.50;;;1.80;;
5167;SDS011;2603;48.918;8.980;2022-07-19T02:17:49;3.43;;;1.97;;
5167;SDS011;2603;48.918;8.980;2022-07-19T02:20:16;11.53;;;1.60;;
5167;SDS011;2603;48.918;8.980;2022-07-19T02:22:42;5.97;;;2.30;;
5167;SDS011;2603;48.918;8.980;2022-07-19T02:25:09;2.57;;;1.73;;
5167;SDS011;2603;48.918;8.980;2022-07-19T02:27:36;3.90;;;2.03;;
5167;SDS011;2603;48.918;8.980;2022-07-19T02:30:05;4.13;;;2.40;;
5167;SDS011;2603;48.918;8.980;2022-07-19T02:32:32;5.33;;;2.07;;
5167;SDS011;2603;48.918;8.980;2022-07-19T02:34:59;3.50;;;1.70;;
5167;SDS011;2603;48.918;8.980;2022-07-19T02:37:25;4.20;;;1.60;;
5167;SDS011;2603;48.918;8.980;2022-07-19T02:39:52;6.80;;;2.13;;
5167;SDS011;2603;48.918;8.980;2022-07-19T02:42:18;7.87;;;2.13;;
5167;SDS011;2603;48.918;8.980;2022-07-19T02:44:45;3.83;;;2.30;;
5167;SDS011;2603;48.918;8.980;2022-07-19T02:47:13;9.73;;;1.90;;
5167;SDS011;2603;48.918;8.980;2022-07-19T02:49:39;13.00;;;2.43;;
5167;SDS011;2603;48.918;8.980;2022-07-19T02:52:06;3.97;;;2.10;;
5167;SDS011;2603;48.918;8.980;2022-07-19T02:54:33;5.10;;;2.23;;
5167;SDS011;2603;48.918;8.980;2022-07-19T02:56:59;5.03;;;1.97;;
5167;SDS011;2603;48.918;8.980;2022-07-19T02:59:26;3.30;;;2.33;;
5167;SDS011;2603;48.918;8.980;2022-07-19T03:01:53;5.30;;;2.03;;
5167;SDS011;2603;48.918;8.980;2022-07-19T03:04:21;5.03;;;2.30;;
5167;SDS011;2603;48.918;8.980;2022-07-19T03:06:47;8.20;;;4.23;;
5167;SDS011;2603;48.918;8.980;2022-07-19T03:09:14;11.97;;;2.50;;
5167;SDS011;2603;48.918;8.980;2022-07-19T03:11:41;6.60;;;2.10;;
5167;SDS011;2603;48.918;8.980;2022-07-19T03:14:07;3.23;;;1.70;;
5167;SDS011;2603;48.918;8.980;2022-07-19T03:16:34;7.13;;;2.20;;
5167;SDS011;2603;48.918;8.980;2022-07-19T03:19:00;5.70;;;2.30;;
5167;SDS011;2603;48.918;8.980;2022-07-19T03:21:28;9.00;;;2.43;;
5167;SDS011;2603;48.918;8.980;2022-07-19T03:23:55;4.43;;;2.10;;
5167;SDS011;2603;48.918;8.980;2022-07-19T03:26:22;10.50;;;2.93;;
5167;SDS011;2603;48.918;8.980;2022-07-19T03:28:48;4.33;;;2.00;;
5167;SDS011;2603;48.918;8.980;2022-07-19T03:31:15;5.10;;;1.97;;
5167;SDS011;2603;48.918;8.980;2022-07-19T03:33:42;4.47;;;1.80;;
5167;SDS011;2603;48.918;8.980;2022-07-19T03:36:08;5.63;;;1.77;;
5167;SDS011;2603;48.918;8.980;2022-07-19T03:38:36;5.83;;;2.60;;
5167;SDS011;2603;48.918;8.980;2022-07-19T03:41:03;11.50;;;2.10;;
5167;SDS011;2603;48.918;8.980;2022-07-19T03:43:30;4.23;;;2.33;;
5167;SDS011;2603;48.918;8.980;2022-07-19T03:45:56;3.40;;;2.03;;
5167;SDS011;2603;48.918;8.980;2022-07-19T03:48:23;11.10;;;2.50;;
5167;SDS011;2603;48.918;8.980;2022-07-19T03:50:49;3.90;;;2.20;;
5167;SDS011;2603;48.918;8.980;2022-07-19T03:53:16;6.17;;;2.60;;
5167;SDS011;2603;48.918;8.980;2022-07-19T03:55:44;3.80;;;2.07;;
5167;SDS011;2603;48.918;8.980;2022-07-19T03:58:10;8.60;;;2.43;;
5167;SDS011;2603;48.918;8.980;2022-07-19T04:00:37;6.73;;;2.73;;
5167;SDS011;2603;48.918;8.980;2022-07-19T04:03:04;13.67;;;2.07;;
5167;SDS011;2603;48.918;8.980;2022-07-19T04:05:31;4.23;;;2.10;;
5167;SDS011;2603;48.918;8.980;2022-07-19T04:07:57;3.30;;;2.30;;
5167;SDS011;2603;48.918;8.980;2022-07-19T04:10:24;3.70;;;1.97;;
5167;SDS011;2603;48.918;8.980;2022-07-19T04:12:52;4.47;;;2.13;;
5167;SDS011;2603;48.918;8.980;2022-07-19T04:15:18;4.80;;;2.30;;
5167;SDS011;2603;48.918;8.980;2022-07-19T04:17:45;3.80;;;1.80;;
5167;SDS011;2603;48.918;8.980;2022-07-19T04:20:12;3.50;;;1.83;;
5167;SDS011;2603;48.918;8.980;2022-07-19T04:22:39;5.20;;;2.40;;
5167;SDS011;2603;48.918;8.980;2022-07-19T04:25:06;3.60;;;2.30;;
5167;SDS011;2603;48.918;8.980;2022-07-19T04:27:33;5.60;;;2.77;;
5167;SDS011;2603;48.918;8.980;2022-07-19T04:30:01;5.63;;;2.20;;
5167;SDS011;2603;48.918;8.980;2022-07-19T04:32:29;5.77;;;2.13;;
5167;SDS011;2603;48.918;8.980;2022-07-19T04:34:56;6.93;;;2.70;;
5167;SDS011;2603;48.918;8.980;2022-07-19T04:37:22;5.87;;;3.20;;
5167;SDS011;2603;48.918;8.980;2022-07-19T04:39:49;6.33;;;2.00;;
5167;SDS011;2603;48.918;8.980;2022-07-19T04:42:15;4.50;;;2.50;;
5167;SDS011;2603;48.918;8.980;2022-07-19T04:44:42;3.73;;;2.20;;
5167;SDS011;2603;48.918;8.980;2022-07-19T04:47:10;8.30;;;2.80;;
5167;SDS011;2603;48.918;8.980;2022-07-19T04:49:36;7.30;;;2.50;;
5167;SDS011;2603;48.918;8.980;2022-07-19T04:52:03;5.50;;;2.20;;
5167;SDS011;2603;48.918;8.980;2022-07-19T04:54:30;8.00;;;2.70;;
5167;SDS011;2603;48.918;8.980;2022-07-19T04:56:57;6.50;;;2.80;;
5167;SDS011;2603;48.918;8.980;2022-07-19T04:59:23;6.50;;;2.73;;
5167;SDS011;2603;48.918;8.980;2022-07-19T05:01:50;12.13;;;2.70;;
5167;SDS011;2603;48.918;8.980;2022-07-19T05:04:18;5.63;;;2.50;;
5167;SDS011;2603;48.918;8.980;2022-07-19T05:06:45;10.53;;;3.07;;
5167;SDS011;2603;48.918;8.980;2022-07-19T05:09:11;9.87;;;3.17;;
5167;SDS011;2603;48.918;8.980;2022-07-19T05:11:38;7.20;;;3.47;;
5167;SDS011;2603;48.918;8.980;2022-07-19T05:14:04;11.97;;;3.40;;
5167;SDS011;2603;48.918;8.980;2022-07-19T05:16:31;6.30;;;2.50;;
5167;SDS011;2603;48.918;8.980;2022-07-19T05:18:57;5.17;;;3.13;;
5167;SDS011;2603;48.918;8.980;2022-07-19T05:21:25;5.60;;;3.47;;
5167;SDS011;2603;48.918;8.980;2022-07-19T05:23:52;9.43;;;2.80;;
5167;SDS011;2603;48.918;8.980;2022-07-19T05:26:18;5.57;;;2.60;;
5167;SDS011;2603;48.918;8.980;2022-07-19T05:28:45;10.07;;;3.27;;
5167;SDS011;2603;48.918;8.980;2022-07-19T05:31:11;9.87;;;3.47;;
5167;SDS011;2603;48.918;8.980;2022-07-19T05:33:38;5.10;;;3.10;;
5167;SDS011;2603;48.918;8.980;2022-07-19T05:36:05;10.83;;;3.70;;
5167;SDS011;2603;48.918;8.980;2022-07-19T05:38:35;8.27;;;3.83;;
5167;SDS011;2603;48.918;8.980;2022-07-19T05:41:03;9.93;;;3.43;;
5167;SDS011;2603;48.918;8.980;2022-07-19T05:43:30;9.33;;;3.03;;
5167;SDS011;2603;48.918;8.980;2022-07-19T05:45:56;12.20;;;3.97;;
5167;SDS011;2603;48.918;8.980;2022-07-19T05:48:23;14.43;;;4.10;;
5167;SDS011;2603;48.918;8.980;2022-07-19T05:50:50;12.70;;;4.27;;
5167;SDS011;2603;48.918;8.980;2022-07-19T05:53:16;8.87;;;3.20;;
5167;SDS011;2603;48.918;8.980;2022-07-19T05:55:45;6.47;;;3.23;;
5167;SDS011;2603;48.918;8.980;2022-07-19T05:58:12;16.93;;;3.70;;
5167;SDS011;2603;48.918;8.980;2022-07-19T06:00:38;6.43;;;3.40;;
5167;SDS011;2603;48.918;8.980;2022-07-19T06:03:26;7.67;;;4.13;;
5167;SDS011;2603;48.918;8.980;2022-07-19T06:05:52;6.20;;;3.07;;
5167;SDS011;2603;48.918;8.980;2022-07-19T06:08:19;9.40;;;3.40;;
5167;SDS011;2603;48.918;8.980;2022-07-19T06:10:47;8.03;;;3.47;;
5167;SDS011;2603;48.918;8.980;2022-07-19T06:13:13;10.07;;;3.67;;
5167;SDS011;2603;48.918;8.980;2022-07-19T06:15:40;7.37;;;3.30;;
5167;SDS011;2603;48.918;8.980;2022-07-19T06:18:06;6.37;;;3.33;;
5167;SDS011;2603;48.918;8.980;2022-07-19T06:20:33;7.10;;;2.93;;
5167;SDS011;2603;48.918;8.980;2022-07-19T06:23:00;5.40;;;2.83;;
5167;SDS011;2603;48.918;8.980;2022-07-19T06:25:26;10.23;;;3.23;;
5167;SDS011;2603;48.918;8.980;2022-07-19T06:27:54;6.47;;;2.83;;
5167;SDS011;2603;48.918;8.980;2022-07-19T06:30:21;10.57;;;3.10;;
5167;SDS011;2603;48.918;8.980;2022-07-19T06:32:47;14.60;;;3.63;;
5167;SDS011;2603;48.918;8.980;2022-07-19T06:35:14;7.37;;;2.60;;
5167;SDS011;2603;48.918;8.980;2022-07-19T06:37:40;9.07;;;2.70;;
5167;SDS011;2603;48.918;8.980;2022-07-19T06:40:07;11.70;;;3.43;;
5167;SDS011;2603;48.918;8.980;2022-07-19T06:42:34;7.50;;;2.87;;
5167;SDS011;2603;48.918;8.980;2022-07-19T06:45:02;17.23;;;3.50;;
5167;SDS011;2603;48.918;8.980;2022-07-19T06:47:30;9.30;;;3.70;;
5167;SDS011;2603;48.918;8.980;2022-07-19T06:49:57;7.67;;;3.37;;
5167;SDS011;2603;48.918;8.980;2022-07-19T06:52:24;7.13;;;2.80;;
5167;SDS011;2603;48.918;8.980;2022-07-19T06:54:50;7.10;;;2.70;;
5167;SDS011;2603;48.918;8.980;2022-07-19T06:57:17;5.50;;;2.97;;
5167;SDS011;2603;48.918;8.980;2022-07-19T06:59:44;10.70;;;3.60;;
5167;SDS011;2603;48.918;8.980;2022-07-19T07:02:12;10.97;;;2.83;;
5167;SDS011;2603;48.918;8.980;2022-07-19T07:04:38;7.43;;;2.73;;
5167;SDS011;2603;48.918;8.980;2022-07-19T07:07:05;16.30;;;2.83;;
5167;SDS011;2603;48.918;8.980;2022-07-19T07:09:31;8.90;;;2.70;;
5167;SDS011;2603;48.918;8.980;2022-07-19T07:11:58;4.87;;;2.50;;
5167;SDS011;2603;48.918;8.980;2022-07-19T07:14:24;16.57;;;2.90;;
5167;SDS011;2603;48.918;8.980;2022-07-19T07:16:51;9.90;;;2.33;;
5167;SDS011;2603;48.918;8.980;2022-07-19T07:19:19;8.83;;;2.77;;
5167;SDS011;2603;48.918;8.980;2022-07-19T07:21:46;11.83;;;2.53;;
5167;SDS011;2603;48.918;8.980;2022-07-19T07:24:13;10.97;;;2.63;;
5167;SDS011;2603;48.918;8.980;2022-07-19T07:26:40;6.90;;;2.60;;
5167;SDS011;2603;48.918;8.980;2022-07-19T07:29:06;5.37;;;2.10;;
5167;SDS011;2603;48.918;8.980;2022-07-19T07:31:33;5.73;;;2.17;;
5167;SDS011;2603;48.918;8.980;2022-07-19T07:34:00;10.97;;;2.80;;
5167;SDS011;2603;48.918;8.980;2022-07-19T07:36:27;4.50;;;2.00;;
5167;SDS011;2603;48.918;8.980;2022-07-19T07:38:54;8.83;;;2.60;;
5167;SDS011;2603;48.918;8.980;2022-07-19T07:41:20;7.57;;;2.50;;
5167;SDS011;2603;48.918;8.980;2022-07-19T07:43:47;10.23;;;2.40;;
5167;SDS011;2603;48.918;8.980;2022-07-19T07:46:14;29.93;;;3.67;;
5167;SDS011;2603;48.918;8.980;2022-07-19T07:48:41;9.87;;;2.10;;
5167;SDS011;2603;48.918;8.980;2022-07-19T07:51:07;9.30;;;2.20;;
5167;SDS011;2603;48.918;8.980;2022-07-19T07:53:35;5.00;;;1.90;;
5167;SDS011;2603;48.918;8.980;2022-07-19T07:56:02;9.97;;;2.77;;
5167;SDS011;2603;48.918;8.980;2022-07-19T07:58:28;9.10;;;2.00;;
5167;SDS011;2603;48.918;8.980;2022-07-19T08:00:55;3.53;;;2.00;;
5167;SDS011;2603;48.918;8.980;2022-07-19T08:03:22;5.73;;;1.80;;
5167;SDS011;2603;48.918;8.980;2022-07-19T08:05:48;4.97;;;1.93;;
5167;SDS011;2603;48.918;8.980;2022-07-19T08:08:15;7.33;;;1.90;;
5167;SDS011;2603;48.918;8.980;2022-07-19T08:10:43;8.30;;;1.90;;
5167;SDS011;2603;48.918;8.980;2022-07-19T08:13:10;8.33;;;1.80;;
5167;SDS011;2603;48.918;8.980;2022-07-19T08:15:37;6.20;;;1.80;;
5167;SDS011;2603;48.918;8.980;2022-07-19T08:18:04;8.50;;;2.30;;
5167;SDS011;2603;48.918;8.980;2022-07-19T08:20:31;6.83;;;2.53;;
5167;SDS011;2603;48.918;8.980;2022-07-19T08:22:58;10.83;;;1.87;;
5167;SDS011;2603;48.918;8.980;2022-07-19T08:25:24;8.30;;;2.40;;
5167;SDS011;2603;48.918;8.980;2022-07-19T08:27:52;13.43;;;1.93;;
5167;SDS011;2603;48.918;8.980;2022-07-19T08:30:19;6.27;;;1.93;;
5167;SDS011;2603;48.918;8.980;2022-07-19T08:32:45;4.63;;;1.30;;
5167;SDS011;2603;48.918;8.980;2022-07-19T08:35:12;3.20;;;1.67;;
5167;SDS011;2603;48.918;8.980;2022-07-19T08:37:39;5.50;;;1.83;;
5167;SDS011;2603;48.918;8.980;2022-07-19T08:40:06;2.13;;;1.27;;
5167;SDS011;2603;48.918;8.980;2022-07-19T08:42:33;3.20;;;1.70;;
5167;SDS011;2603;48.918;8.980;2022-07-19T08:45:02;4.60;;;1.83;;
5167;SDS011;2603;48.918;8.980;2022-07-19T08:47:30;4.77;;;1.33;;
5167;SDS011;2603;48.918;8.980;2022-07-19T08:49:57;5.40;;;1.63;;
5167;SDS011;2603;48.918;8.980;2022-07-19T08:52:25;3.97;;;1.33;;
5167;SDS011;2603;48.918;8.980;2022-07-19T08:54:52;13.23;;;1.97;;
5167;SDS011;2603;48.918;8.980;2022-07-19T08:57:20;9.40;;;1.80;;
5167;SDS011;2603;48.918;8.980;2022-07-19T09:00:07;5.40;;;2.00;;
5167;SDS011;2603;48.918;8.980;2022-07-19T09:02:34;4.17;;;1.70;;
5167;SDS011;2603;48.918;8.980;2022-07-19T09:05:02;6.50;;;1.23;;
5167;SDS011;2603;48.918;8.980;2022-07-19T09:07:33;2.17;;;1.60;;
5167;SDS011;2603;48.918;8.980;2022-07-19T09:10:16;7.23;;;1.77;;
5167;SDS011;2603;48.918;8.980;2022-07-19T09:13:00;2.40;;;1.40;;
5167;SDS011;2603;48.918;8.980;2022-07-19T09:15:43;6.10;;;1.50;;
5167;SDS011;2603;48.918;8.980;2022-07-19T09:18:12;9.47;;;1.60;;
5167;SDS011;2603;48.918;8.980;2022-07-19T09:20:41;9.13;;;1.80;;
5167;SDS011;2603;48.918;8.980;2022-07-19T09:23:08;5.40;;;2.00;;
5167;SDS011;2603;48.918;8.980;2022-07-19T09:25:36;2.77;;;1.40;;
5167;SDS011;2603;48.918;8.980;2022-07-19T09:28:04;6.87;;;2.10;;
5167;SDS011;2603;48.918;8.980;2022-07-19T09:30:32;13.77;;;1.57;;
5167;SDS011;2603;48.918;8.980;2022-07-19T09:33:10;4.07;;;1.20;;
5167;SDS011;2603;48.918;8.980;2022-07-19T09:35:39;4.13;;;1.63;;
5167;SDS011;2603;48.918;8.980;2022-07-19T09:38:17;7.00;;;1.30;;
5167;SDS011;2603;48.918;8.980;2022-07-19T09:40:52;3.73;;;1.40;;
5167;SDS011;2603;48.918;8.980;2022-07-19T09:43:20;20.30;;;2.03;;
5167;SDS011;2603;48.918;8.980;2022-07-19T09:45:48;3.27;;;1.13;;
5167;SDS011;2603;48.918;8.980;2022-07-19T09:48:16;10.40;;;2.00;;
5167;SDS011;2603;48.918;8.980;2022-07-19T09:50:43;2.80;;;1.40;;
5167;SDS011;2603;48.918;8.980;2022-07-19T09:53:12;2.60;;;1.50;;
5167;SDS011;2603;48.918;8.980;2022-07-19T09:55:39;3.67;;;1.90;;
5167;SDS011;2603;48.918;8.980;2022-07-19T09:58:06;5.20;;;1.13;;
5167;SDS011;2603;48.918;8.980;2022-07-19T10:00:32;7.97;;;1.43;;
5167;SDS011;2603;48.918;8.980;2022-07-19T10:03:00;5.40;;;1.70;;
5167;SDS011;2603;48.918;8.980;2022-07-19T10:05:28;2.00;;;1.40;;
5167;SDS011;2603;48.918;8.980;2022-07-19T10:07:56;3.53;;;1.83;;
5167;SDS011;2603;48.918;8.980;2022-07-19T10:10:23;10.10;;;1.67;;
5167;SDS011;2603;48.918;8.980;2022-07-19T10:12:55;1.43;;;0.90;;
5167;SDS011;2603;48.918;8.980;2022-07-19T10:15:23;8.90;;;1.73;;
5167;SDS011;2603;48.918;8.980;2022-07-19T10:17:54;6.73;;;1.20;;
5167;SDS011;2603;48.918;8.980;2022-07-19T10:20:25;4.57;;;1.60;;
5167;SDS011;2603;48.918;8.980;2022-07-19T10:22:54;3.80;;;1.50;;
5167;SDS011;2603;48.918;8.980;2022-07-19T10:25:24;3.10;;;1.50;;
5167;SDS011;2603;48.918;8.980;2022-07-19T10:27:51;5.77;;;1.20;;
5167;SDS011;2603;48.918;8.980;2022-07-19T10:30:23;3.80;;;1.53;;
5167;SDS011;2603;48.918;8.980;2022-07-19T10:32:53;6.43;;;1.90;;
5167;SDS011;2603;48.918;8.980;2022-07-19T10:35:22;2.13;;;1.33;;
5167;SDS011;2603;48.918;8.980;2022-07-19T10:37:50;2.93;;;1.97;;
5167;SDS011;2603;48.918;8.980;2022-07-19T10:40:39;4.63;;;1.63;;
5167;SDS011;2603;48.918;8.980;2022-07-19T10:43:08;6.50;;;2.10;;
5167;SDS011;2603;48.918;8.980;2022-07-19T10:45:36;2.63;;;1.50;;
5167;SDS011;2603;48.918;8.980;2022-07-19T10:48:05;3.70;;;1.80;;
5167;SDS011;2603;48.918;8.980;2022-07-19T10:50:43;2.90;;;1.83;;
5167;SDS011;2603;48.918;8.980;2022-07-19T10:56:43;3.10;;;1.57;;
5167;SDS011;2603;48.918;8.980;2022-07-19T10:59:29;7.00;;;2.10;;
5167;SDS011;2603;48.918;8.980;2022-07-19T11:01:57;12.20;;;1.60;;
5167;SDS011;2603;48.918;8.980;2022-07-19T11:04:29;3.10;;;1.57;;
5167;SDS011;2603;48.918;8.980;2022-07-19T11:07:13;3.70;;;1.30;;
5167;SDS011;2603;48.918;8.980;2022-07-19T11:09:42;7.23;;;2.23;;
5167;SDS011;2603;48.918;8.980;2022-07-19T11:15:00;8.27;;;2.20;;
5167;SDS011;2603;48.918;8.980;2022-07-19T11:17:30;3.60;;;2.10;;
5167;SDS011;2603;48.918;8.980;2022-07-19T11:19:57;2.23;;;1.53;;
5167;SDS011;2603;48.918;8.980;2022-07-19T11:22:34;4.10;;;1.93;;
5167;SDS011;2603;48.918;8.980;2022-07-19T11:25:02;2.97;;;1.60;;
5167;SDS011;2603;48.918;8.980;2022-07-19T11:27:30;3.90;;;1.70;;
5167;SDS011;2603;48.918;8.980;2022-07-19T11:30:00;6.67;;;2.33;;
5167;SDS011;2603;48.918;8.980;2022-07-19T11:32:29;5.80;;;2.30;;
5167;SDS011;2603;48.918;8.980;2022-07-19T11:34:56;5.80;;;1.90;;
5167;SDS011;2603;48.918;8.980;2022-07-19T11:37:24;4.50;;;1.40;;
5167;SDS011;2603;48.918;8.980;2022-07-19T11:39:52;5.03;;;1.50;;
5167;SDS011;2603;48.918;8.980;2022-07-19T11:42:32;5.50;;;1.57;;
5167;SDS011;2603;48.918;8.980;2022-07-19T11:45:09;3.03;;;1.70;;
5167;SDS011;2603;48.918;8.980;2022-07-19T11:47:36;2.70;;;1.60;;
5167;SDS011;2603;48.918;8.980;2022-07-19T11:50:04;4.90;;;1.57;;
5167;SDS011;2603;48.918;8.980;2022-07-19T11:52:44;3.60;;;1.70;;
5167;SDS011;2603;48.918;8.980;2022-07-19T11:55:19;6.80;;;1.60;;
5167;SDS011;2603;48.918;8.980;2022-07-19T11:57:47;4.17;;;2.03;;
5167;SDS011;2603;48.918;8.980;2022-07-19T12:00:16;9.60;;;1.83;;
5167;SDS011;2603;48.918;8.980;2022-07-19T12:02:50;5.30;;;2.03;;
5167;SDS011;2603;48.918;8.980;2022-07-19T12:05:21;5.33;;;2.07;;
5167;SDS011;2603;48.918;8.980;2022-07-19T12:07:48;3.10;;;1.90;;
5167;SDS011;2603;48.918;8.980;2022-07-19T12:13:06;9.77;;;1.90;;
5167;SDS011;2603;48.918;8.980;2022-07-19T12:15:45;3.83;;;1.87;;
5167;SDS011;2603;48.918;8.980;2022-07-19T12:18:16;8.80;;;2.37;;
5167;SDS011;2603;48.918;8.980;2022-07-19T12:20:44;7.10;;;2.03;;
5167;SDS011;2603;48.918;8.980;2022-07-19T12:23:12;10.33;;;2.07;;
5167;SDS011;2603;48.918;8.980;2022-07-19T12:25:40;6.20;;;2.03;;
5167;SDS011;2603;48.918;8.980;2022-07-19T12:28:07;3.63;;;1.90;;
5167;SDS011;2603;48.918;8.980;2022-07-19T12:30:33;7.33;;;2.23;;
5167;SDS011;2603;48.918;8.980;2022-07-19T12:33:07;4.20;;;1.70;;
5167;SDS011;2603;48.918;8.980;2022-07-19T12:35:40;6.30;;;2.07;;
5167;SDS011;2603;48.918;8.980;2022-07-19T12:38:08;6.70;;;1.90;;
5167;SDS011;2603;48.918;8.980;2022-07-19T12:40:36;3.47;;;1.60;;
5167;SDS011;2603;48.918;8.980;2022-07-19T12:43:04;6.00;;;2.33;;
5167;SDS011;2603;48.918;8.980;2022-07-19T12:45:32;3.80;;;1.83;;
5167;SDS011;2603;48.918;8.980;2022-07-19T12:48:00;7.60;;;2.03;;
5167;SDS011;2603;48.918;8.980;2022-07-19T12:50:29;5.50;;;2.50;;
5167;SDS011;2603;48.918;8.980;2022-07-19T12:52:57;3.83;;;1.87;;
5167;SDS011;2603;48.918;8.980;2022-07-19T12:55:25;4.83;;;2.33;;
5167;SDS011;2603;48.918;8.980;2022-07-19T12:57:53;4.20;;;1.83;;
5167;SDS011;2603;48.918;8.980;2022-07-19T13:00:21;5.50;;;2.00;;
5167;SDS011;2603;48.918;8.980;2022-07-19T13:02:49;3.00;;;1.80;;
5167;SDS011;2603;48.918;8.980;2022-07-19T13:05:17;8.20;;;2.73;;
5167;SDS011;2603;48.918;8.980;2022-07-19T13:07:46;4.90;;;2.27;;
5167;SDS011;2603;48.918;8.980;2022-07-19T13:10:12;4.67;;;2.10;;
5167;SDS011;2603;48.918;8.980;2022-07-19T13:12:39;6.07;;;2.10;;
5167;SDS011;2603;48.918;8.980;2022-07-19T13:15:07;6.20;;;2.10;;
5167;SDS011;2603;48.918;8.980;2022-07-19T13:17:35;4.97;;;2.00;;
5167;SDS011;2603;48.918;8.980;2022-07-19T13:20:02;4.37;;;1.80;;
5167;SDS011;2603;48.918;8.980;2022-07-19T13:22:29;5.17;;;2.10;;
5167;SDS011;2603;48.918;8.980;2022-07-19T13:24:57;2.30;;;1.70;;
5167;SDS011;2603;48.918;8.980;2022-07-19T13:27:24;3.60;;;1.90;;
5167;SDS011;2603;48.918;8.980;2022-07-19T13:29:51;6.03;;;2.07;;
5167;SDS011;2603;48.918;8.980;2022-07-19T13:32:18;6.40;;;2.30;;
5167;SDS011;2603;48.918;8.980;2022-07-19T13:34:45;5.47;;;2.13;;
5167;SDS011;2603;48.918;8.980;2022-07-19T13:37:11;4.07;;;2.20;;
5167;SDS011;2603;48.918;8.980;2022-07-19T13:39:38;7.93;;;2.30;;
5167;SDS011;2603;48.918;8.980;2022-07-19T13:42:06;5.67;;;2.27;;
5167;SDS011;2603;48.918;8.980;2022-07-19T13:44:32;11.87;;;2.50;;
5167;SDS011;2603;48.918;8.980;2022-07-19T13:46:59;4.50;;;2.37;;
5167;SDS011;2603;48.918;8.980;2022-07-19T13:49:26;6.60;;;2.03;;
5167;SDS011;2603;48.918;8.980;2022-07-19T13:51:52;8.43;;;2.43;;
5167;SDS011;2603;48.918;8.980;2022-07-19T13:54:19;3.40;;;1.90;;
5167;SDS011;2603;48.918;8.980;2022-07-19T13:56:46;4.10;;;2.03;;
5167;SDS011;2603;48.918;8.980;2022-07-19T13:59:14;3.40;;;2.17;;
5167;SDS011;2603;48.918;8.980;2022-07-19T14:01:40;7.07;;;1.90;;
5167;SDS011;2603;48.918;8.980;2022-07-19T14:04:07;7.30;;;2.60;;
5167;SDS011;2603;48.918;8.980;2022-07-19T14:06:33;6.53;;;1.97;;
5167;SDS011;2603;48.918;8.980;2022-07-19T14:09:00;4.60;;;2.57;;
5167;SDS011;2603;48.918;8.980;2022-07-19T14:11:26;8.03;;;2.40;;
5167;SDS011;2603;48.918;8.980;2022-07-19T14:13:53;8.47;;;2.67;;
5167;SDS011;2603;48.918;8.980;2022-07-19T14:16:21;4.20;;;2.57;;
5167;SDS011;2603;48.918;8.980;2022-07-19T14:18:48;5.50;;;2.47;;
5167;SDS011;2603;48.918;8.980;2022-07-19T14:21:15;4.60;;;2.53;;
5167;SDS011;2603;48.918;8.980;2022-07-19T14:23:42;7.33;;;2.20;;
5167;SDS011;2603;48.918;8.980;2022-07-19T14:26:08;4.37;;;2.37;;
5167;SDS011;2603;48.918;8.980;2022-07-19T14:28:35;8.00;;;2.67;;
5167;SDS011;2603;48.918;8.980;2022-07-19T14:31:01;8.07;;;2.50;;
5167;SDS011;2603;48.918;8.980;2022-07-19T14:33:29;8.30;;;2.97;;
5167;SDS011;2603;48.918;8.980;2022-07-19T14:35:56;5.90;;;2.10;;
5167;SDS011;2603;48.918;8.980;2022-07-19T14:38:23;9.60;;;2.90;;
5167;SDS011;2603;48.918;8.980;2022-07-19T14:40:49;7.23;;;2.57;;
5167;SDS011;2603;48.918;8.980;2022-07-19T14:43:16;7.13;;;2.40;;
5167;SDS011;2603;48.918;8.980;2022-07-19T14:45:42;6.40;;;1.67;;
5167;SDS011;2603;48.918;8.980;2022-07-19T14:48:09;6.60;;;2.13;;
5167;SDS011;2603;48.918;8.980;2022-07-19T14:50:37;6.00;;;1.80;;
5167;SDS011;2603;48.918;8.980;2022-07-19T14:55:30;5.43;;;2.53;;
5167;SDS011;2603;48.918;8.980;2022-07-19T14:57:57;6.73;;;5.50;;
5167;SDS011;2603;48.918;8.980;2022-07-19T15:00:24;6.80;;;2.80;;
5167;SDS011;2603;48.918;8.980;2022-07-19T15:02:51;4.80;;;2.37;;
5167;SDS011;2603;48.918;8.980;2022-07-19T15:05:17;6.43;;;2.70;;
5167;SDS011;2603;48.918;8.980;2022-07-19T15:07:47;6.40;;;2.50;;
5167;SDS011;2603;48.918;8.980;2022-07-19T15:10:14;7.73;;;2.37;;
5167;SDS011;2603;48.918;8.980;2022-07-19T15:12:40;5.57;;;2.60;;
5167;SDS011;2603;48.918;8.980;2022-07-19T15:15:07;7.33;;;2.07;;
5167;SDS011;2603;48.918;8.980;2022-07-19T15:17:35;8.57;;;2.30;;
5167;SDS011;2603;48.918;8.980;2022-07-19T15:20:02;11.23;;;2.80;;
5167;SDS011;2603;48.918;8.980;2022-07-19T15:22:30;4.93;;;2.30;;
5167;SDS011;2603;48.918;8.980;2022-07-19T15:24:57;10.53;;;2.60;;
5167;SDS011;2603;48.918;8.980;2022-07-19T15:27:24;3.90;;;1.87;;